createdAt,value
2022-10-02T00:02:34.000Z,12.47
2022-10-02T00:05:05.674Z,12.47
2022-10-02T00:07:44.614Z,12.47
2022-10-02T00:10:30.888Z,12.44
2022-10-02T00:13:03.348Z,12.45
2022-10-02T00:15:33.412Z,12.43
2022-10-02T00:18:25.323Z,12.40
2022-10-02T00:21:30.131Z,12.36
2022-10-02T00:24:01.327Z,12.34
2022-10-02T00:26:54.074Z,12.33
2022-10-02T00:29:44.957Z,12.30
2022-10-02T00:32:57.651Z,12.33
2022-10-02T00:35:41.092Z,12.36
2022-10-02T00:38:39.986Z,12.37
2022-10-02T00:41:50.413Z,12.40
2022-10-02T00:44:48.224Z,12.45
2022-10-02T00:47:30.331Z,12.47
2022-10-02T00:50:07.120Z,12.49
2022-10-02T00:53:19.584Z,12.49
2022-10-02T00:56:23.526Z,12.46
2022-10-02T00:59:33.818Z,12.45
2022-10-02T01:02:49.899Z,12.44
2022-10-02T01:05:17.023Z,12.39
2022-10-02T01:07:49.925Z,12.40
2022-10-02T01:10:17.555Z,12.38
2022-10-02T01:12:45.500Z,12.37
2022-10-02T01:15:18.421Z,12.37
2022-10-02T01:17:49.986Z,12.32
2022-10-02T01:20:30.267Z,12.32
2022-10-02T01:23:27.500Z,12.32
2022-10-02T01:25:54.574Z,12.30
2022-10-02T01:28:22.559Z,12.30
2022-10-02T01:30:55.492Z,12.24
2022-10-02T01:33:23.795Z,12.24
2022-10-02T01:35:51.044Z,12.23
2022-10-02T01:38:21.381Z,12.22
2022-10-02T01:40:48.280Z,12.21
2022-10-02T01:43:21.057Z,12.24
2022-10-02T01:46:25.412Z,12.24
2022-10-02T01:49:25.495Z,12.23
2022-10-02T01:52:20.097Z,12.23
2022-10-02T01:55:11.243Z,12.22
2022-10-02T01:58:02.310Z,12.26
2022-10-02T02:00:46.538Z,12.22
2022-10-02T02:03:30.186Z,12.20
2022-10-02T02:06:09.908Z,12.22
2022-10-02T02:08:58.460Z,12.21
2022-10-02T02:11:29.054Z,12.21
2022-10-02T02:14:12.135Z,12.21
2022-10-02T02:16:44.012Z,12.23
2022-10-02T02:19:26.370Z,12.26
2022-10-02T02:22:01.375Z,12.27
2022-10-02T02:25:19.873Z,12.28
2022-10-02T02:27:53.938Z,12.29
2022-10-02T02:30:23.712Z,12.27
2022-10-02T02:33:01.599Z,12.26
2022-10-02T02:35:35.734Z,12.21
2022-10-02T02:38:13.817Z,12.21
2022-10-02T02:40:44.850Z,12.18
2022-10-02T02:43:34.996Z,12.17
2022-10-02T02:46:10.098Z,12.16
2022-10-02T02:48:46.660Z,12.18
2022-10-02T02:51:28.303Z,12.16
2022-10-02T02:54:13.380Z,12.19
2022-10-02T02:56:44.557Z,12.23
2022-10-02T02:59:14.207Z,12.26
2022-10-02T03:01:42.785Z,12.26
2022-10-02T03:04:14.595Z,12.29
2022-10-02T03:06:45.672Z,12.29
2022-10-02T03:09:19.361Z,12.27
2022-10-02T03:12:05.940Z,12.29
2022-10-02T03:14:47.657Z,12.30
2022-10-02T03:17:23.796Z,12.33
2022-10-02T03:20:41.539Z,12.34
2022-10-02T03:23:36.036Z,12.29
2022-10-02T03:26:19.872Z,12.28
2022-10-02T03:28:56.745Z,12.22
2022-10-02T03:31:28.577Z,12.21
2022-10-02T03:33:58.456Z,12.19
2022-10-02T03:36:26.181Z,12.18
2022-10-02T03:39:23.189Z,12.16
2022-10-02T03:41:45.012Z,12.14
2022-10-02T03:44:11.899Z,12.15
2022-10-02T03:46:39.114Z,12.16
2022-10-02T03:49:06.348Z,12.16
2022-10-02T03:51:33.315Z,12.19
2022-10-02T03:54:00.227Z,12.18
2022-10-02T03:56:44.849Z,12.19
2022-10-02T03:59:18.641Z,12.21
2022-10-02T04:01:51.995Z,12.21
2022-10-02T04:04:31.658Z,12.25
2022-10-02T04:07:12.907Z,12.22
2022-10-02T04:09:50.480Z,12.20
2022-10-02T04:12:27.893Z,12.21
2022-10-02T04:15:09.053Z,12.16
2022-10-02T04:17:48.907Z,12.20
2022-10-02T04:20:51.406Z,12.18
2022-10-02T04:23:23.284Z,12.07
2022-10-02T04:26:13.916Z,12.07
2022-10-02T04:28:46.377Z,12.07
2022-10-02T04:31:14.567Z,12.04
2022-10-02T04:33:41.617Z,11.97
2022-10-02T04:36:40.944Z,11.97
2022-10-02T04:39:31.856Z,11.95
2022-10-02T04:42:36.258Z,11.91
2022-10-02T04:45:37.920Z,11.87
2022-10-02T04:48:26.364Z,11.87
2022-10-02T04:51:15.808Z,11.81
2022-10-02T04:54:10.120Z,11.74
2022-10-02T04:56:55.026Z,11.73
2022-10-02T04:59:49.716Z,11.68
2022-10-02T05:02:34.726Z,11.61
2022-10-02T05:05:30.652Z,11.57
2022-10-02T05:08:40.379Z,11.59
2022-10-02T05:11:47.015Z,11.54
2022-10-02T05:15:09.503Z,11.53
2022-10-02T05:18:00.960Z,11.54
2022-10-02T05:20:44.878Z,11.55
2022-10-02T05:23:45.424Z,11.57
2022-10-02T05:26:31.511Z,11.60
2022-10-02T05:29:41.516Z,11.65
2022-10-02T05:32:22.569Z,11.73
2022-10-02T05:35:07.831Z,11.82
2022-10-02T05:37:46.598Z,11.85
2022-10-02T05:40:30.400Z,11.92
2022-10-02T05:43:47.549Z,11.98
2022-10-02T05:46:25.750Z,11.99
2022-10-02T05:49:06.269Z,12.02
2022-10-02T05:51:59.150Z,12.03
2022-10-02T05:54:39.706Z,12.05
2022-10-02T05:57:48.508Z,12.03
2022-10-02T06:00:40.510Z,12.02
2022-10-02T06:03:19.922Z,12.01
2022-10-02T06:06:06.969Z,12.00
2022-10-02T06:09:21.644Z,12.00
2022-10-02T06:12:07.558Z,11.99
2022-10-02T06:14:50.729Z,11.98
2022-10-02T06:17:47.741Z,12.01
2022-10-02T06:20:42.488Z,12.01
2022-10-02T06:23:38.437Z,12.04
2022-10-02T06:26:16.523Z,12.05
2022-10-02T06:29:18.649Z,12.05
2022-10-02T06:31:59.262Z,12.06
2022-10-02T06:34:27.080Z,12.08
2022-10-02T06:37:20.139Z,12.11
2022-10-02T06:40:24.327Z,12.10
2022-10-02T06:43:18.145Z,12.14
2022-10-02T06:46:11.399Z,12.18
2022-10-02T06:48:53.021Z,12.21
2022-10-02T06:52:08.748Z,12.23
2022-10-02T06:55:12.907Z,12.27
2022-10-02T06:58:30.123Z,12.32
2022-10-02T07:01:13.578Z,12.37
2022-10-02T07:04:26.355Z,12.42
2022-10-02T07:07:19.323Z,12.48
2022-10-02T07:10:01.394Z,12.51
2022-10-02T07:12:49.316Z,12.57
2022-10-02T07:16:01.158Z,12.63
2022-10-02T07:18:49.579Z,12.67
2022-10-02T07:21:52.795Z,12.70
2022-10-02T07:24:48.807Z,12.76
2022-10-02T07:27:41.114Z,12.82
2022-10-02T07:30:16.643Z,12.85
2022-10-02T07:33:03.467Z,12.86
2022-10-02T07:36:14.380Z,12.94
2022-10-02T07:39:02.242Z,13.00
2022-10-02T07:41:44.180Z,13.03
2022-10-02T07:44:45.066Z,13.04
2022-10-02T07:47:50.365Z,13.12
2022-10-02T07:50:49.973Z,13.19
2022-10-02T07:53:49.669Z,13.24
2022-10-02T07:56:22.501Z,13.33
2022-10-02T07:58:58.839Z,13.38
2022-10-02T08:01:32.324Z,13.42
2022-10-02T08:04:14.645Z,13.52
2022-10-02T08:06:42.003Z,13.56
2022-10-02T08:09:32.769Z,13.66
2022-10-02T08:12:14.106Z,13.74
2022-10-02T08:14:44.603Z,13.76
2022-10-02T08:17:30.021Z,13.87
2022-10-02T08:20:25.360Z,13.89
2022-10-02T08:23:23.170Z,13.93
2022-10-02T08:26:06.080Z,13.98
2022-10-02T08:29:05.598Z,14.04
2022-10-02T08:31:33.291Z,14.10
2022-10-02T08:34:26.064Z,14.14
2022-10-02T08:37:29.720Z,14.09
2022-10-02T08:40:46.221Z,14.13
2022-10-02T08:43:46.651Z,14.22
2022-10-02T08:46:56.149Z,14.31
2022-10-02T08:50:15.945Z,14.44
2022-10-02T08:53:25.623Z,14.52
2022-10-02T08:56:20.522Z,14.59
2022-10-02T08:59:05.744Z,14.61
2022-10-02T09:02:27.566Z,14.68
2022-10-02T09:05:47.459Z,14.71
2022-10-02T09:08:51.341Z,14.78
2022-10-02T09:12:00.237Z,14.91
2022-10-02T09:14:45.595Z,15.05
2022-10-02T09:17:32.891Z,15.13
2022-10-02T09:20:41.391Z,15.23
2022-10-02T09:24:06.592Z,15.24
2022-10-02T09:27:18.480Z,15.19
2022-10-02T09:30:27.894Z,15.21
2022-10-02T09:33:28.911Z,15.22
2022-10-02T09:36:24.800Z,15.21
2022-10-02T09:40:03.048Z,15.29
2022-10-02T09:43:08.152Z,15.28
2022-10-02T09:46:15.029Z,15.71
2022-10-02T09:49:25.366Z,16.05
2022-10-02T09:52:29.176Z,16.35
2022-10-02T09:55:38.769Z,16.40
2022-10-02T09:58:51.261Z,16.52
2022-10-02T10:01:40.805Z,16.54
2022-10-02T10:05:01.343Z,16.46
2022-10-02T10:07:54.210Z,16.42
2022-10-02T10:10:42.611Z,16.41
2022-10-02T10:13:39.595Z,16.36
2022-10-02T10:16:52.750Z,16.38
2022-10-02T10:19:45.236Z,16.30
2022-10-02T10:22:44.488Z,16.39
2022-10-02T10:26:08.090Z,16.49
2022-10-02T10:29:03.939Z,16.53
2022-10-02T10:32:18.797Z,16.67
2022-10-02T10:35:36.755Z,16.74
2022-10-02T10:38:54.083Z,16.98
2022-10-02T10:42:01.089Z,16.88
2022-10-02T10:44:52.976Z,16.72
2022-10-02T10:47:47.960Z,16.55
2022-10-02T10:50:38.636Z,16.50
2022-10-02T10:53:29.947Z,16.43
2022-10-02T10:56:26.237Z,16.72
2022-10-02T10:59:35.374Z,16.87
2022-10-02T11:02:36.182Z,16.69
2022-10-02T11:05:28.044Z,16.58
2022-10-02T11:08:12.682Z,16.42
2022-10-02T11:11:17.624Z,16.35
2022-10-02T11:13:54.376Z,16.24
2022-10-02T11:17:00.408Z,16.06
2022-10-02T11:20:04.591Z,16.02
2022-10-02T11:23:10.867Z,16.08
2022-10-02T11:26:14.094Z,16.12
2022-10-02T11:29:00.136Z,16.29
2022-10-02T11:31:49.678Z,16.43
2022-10-02T11:34:51.236Z,16.54
2022-10-02T11:37:40.578Z,16.63
2022-10-02T11:40:37.392Z,16.47
2022-10-02T11:43:28.694Z,16.51
2022-10-02T11:46:52.147Z,16.37
2022-10-02T11:49:58.975Z,16.29
2022-10-02T11:52:53.044Z,16.29
2022-10-02T11:55:53.632Z,16.26
2022-10-02T11:59:02.987Z,16.31
2022-10-02T12:01:45.626Z,16.28
2022-10-02T12:04:40.764Z,16.36
2022-10-02T12:07:24.673Z,16.42
2022-10-02T12:10:39.401Z,16.46
2022-10-02T12:13:47.024Z,16.35
2022-10-02T12:16:54.950Z,16.39
2022-10-02T12:19:37.842Z,16.46
2022-10-02T12:22:39.162Z,16.51
2022-10-02T12:26:19.653Z,16.31
2022-10-02T12:29:19.322Z,16.16
2022-10-02T12:32:07.963Z,16.00
2022-10-02T12:34:59.724Z,15.80
2022-10-02T12:37:29.681Z,15.80
2022-10-02T12:40:13.855Z,15.82
2022-10-02T12:42:52.705Z,15.85
2022-10-02T12:46:10.255Z,15.80
2022-10-02T12:49:19.829Z,15.85
2022-10-02T12:52:09.582Z,15.93
2022-10-02T12:55:02.942Z,15.98
2022-10-02T12:58:01.607Z,15.95
2022-10-02T13:01:01.950Z,15.91
2022-10-02T13:04:16.399Z,15.95
2022-10-02T13:07:06.120Z,15.90
2022-10-02T13:09:59.422Z,15.85
2022-10-02T13:12:55.489Z,15.81
2022-10-02T13:15:35.711Z,15.87
2022-10-02T13:18:52.539Z,15.93
2022-10-02T13:21:47.239Z,16.02
2022-10-02T13:24:44.821Z,16.12
2022-10-02T13:27:56.007Z,16.37
2022-10-02T13:30:24.035Z,16.47
2022-10-02T13:33:32.344Z,16.45
2022-10-02T13:36:43.756Z,16.39
2022-10-02T13:39:41.865Z,16.35
2022-10-02T13:42:23.753Z,16.27
2022-10-02T13:45:13.118Z,16.14
2022-10-02T13:48:03.078Z,16.05
2022-10-02T13:51:11.818Z,15.92
2022-10-02T13:54:07.140Z,15.88
2022-10-02T13:57:09.992Z,15.91
2022-10-02T14:00:01.861Z,16.05
2022-10-02T14:03:16.388Z,16.16
2022-10-02T14:06:01.188Z,16.20
2022-10-02T14:09:04.417Z,16.26
2022-10-02T14:12:25.798Z,16.26
2022-10-02T14:15:20.331Z,16.23
2022-10-02T14:17:59.046Z,16.20
2022-10-02T14:20:52.035Z,16.22
2022-10-02T14:23:45.193Z,16.27
2022-10-02T14:26:53.773Z,16.30
2022-10-02T14:30:05.225Z,16.27
2022-10-02T14:33:00.434Z,16.34
2022-10-02T14:35:49.778Z,16.31
2022-10-02T14:38:44.251Z,16.38
2022-10-02T14:41:40.030Z,16.34
2022-10-02T14:44:45.916Z,16.35
2022-10-02T14:47:48.636Z,16.35
2022-10-02T14:50:42.957Z,16.35
2022-10-02T14:53:49.472Z,16.27
2022-10-02T14:56:28.461Z,16.17
2022-10-02T14:59:22.386Z,16.09
2022-10-02T15:02:10.366Z,15.97
2022-10-02T15:05:03.506Z,15.83
2022-10-02T15:07:34.570Z,15.69
2022-10-02T15:10:22.716Z,15.61
2022-10-02T15:13:01.997Z,15.47
2022-10-02T15:16:38.651Z,15.36
2022-10-02T15:19:23.808Z,15.30
2022-10-02T15:22:28.329Z,15.16
2022-10-02T15:24:58.845Z,15.09
2022-10-02T15:27:45.974Z,15.05
2022-10-02T15:30:26.689Z,15.02
2022-10-02T15:33:16.277Z,15.01
2022-10-02T15:36:11.836Z,14.98
2022-10-02T15:38:44.464Z,15.01
2022-10-02T15:41:33.488Z,15.04
2022-10-02T15:44:24.987Z,15.03
2022-10-02T15:47:10.255Z,14.97
2022-10-02T15:50:03.862Z,15.04
2022-10-02T15:52:51.144Z,15.02
2022-10-02T15:55:27.736Z,14.90
2022-10-02T15:58:31.083Z,14.88
2022-10-02T16:01:26.931Z,14.92
2022-10-02T16:04:04.574Z,14.87
2022-10-02T16:07:36.758Z,14.84
2022-10-02T16:10:26.318Z,14.82
2022-10-02T16:13:21.785Z,14.75
2022-10-02T16:16:03.017Z,14.72
2022-10-02T16:19:02.622Z,14.68
2022-10-02T16:21:47.707Z,14.59
2022-10-02T16:24:50.027Z,14.57
2022-10-02T16:27:50.749Z,14.52
2022-10-02T16:30:23.836Z,14.50
2022-10-02T16:33:25.759Z,14.46
2022-10-02T16:36:33.612Z,14.42
2022-10-02T16:39:50.962Z,14.37
2022-10-02T16:42:38.525Z,14.32
2022-10-02T16:46:03.329Z,14.28
2022-10-02T16:48:53.737Z,14.23
2022-10-02T16:52:04.335Z,14.17
2022-10-02T16:54:59.091Z,14.07
2022-10-02T16:57:49.403Z,14.01
2022-10-02T17:00:32.668Z,13.97
2022-10-02T17:03:30.220Z,13.94
2022-10-02T17:06:27.015Z,13.87
2022-10-02T17:09:24.712Z,13.78
2022-10-02T17:12:38.103Z,13.70
2022-10-02T17:15:40.392Z,13.61
2022-10-02T17:18:39.851Z,13.52
2022-10-02T17:21:24.972Z,13.47
2022-10-02T17:24:33.862Z,13.38
2022-10-02T17:27:17.123Z,13.29
2022-10-02T17:30:16.425Z,13.20
2022-10-02T17:32:46.300Z,13.13
2022-10-02T17:35:44.607Z,13.07
2022-10-02T17:38:40.639Z,12.97
2022-10-02T17:41:35.607Z,12.95
2022-10-02T17:44:25.686Z,12.85
2022-10-02T17:47:28.070Z,12.76
2022-10-02T17:50:39.651Z,12.70
2022-10-02T17:53:54.511Z,12.60
2022-10-02T17:56:55.213Z,12.52
2022-10-02T17:59:48.243Z,12.48
2022-10-02T18:03:07.228Z,12.41
2022-10-02T18:06:08.618Z,12.37
2022-10-02T18:09:09.536Z,12.35
2022-10-02T18:12:12.606Z,12.28
2022-10-02T18:15:00.916Z,12.21
2022-10-02T18:17:43.234Z,12.18
2022-10-02T18:20:40.869Z,12.13
2022-10-02T18:23:43.397Z,12.12
2022-10-02T18:26:19.407Z,12.07
2022-10-02T18:29:27.375Z,12.00
2022-10-02T18:32:24.353Z,11.94
2022-10-02T18:35:36.959Z,11.90
2022-10-02T18:38:28.584Z,11.87
2022-10-02T18:41:55.297Z,11.79
2022-10-02T18:44:47.114Z,11.75
2022-10-02T18:47:38.672Z,11.68
2022-10-02T18:50:08.213Z,11.69
2022-10-02T18:52:57.000Z,11.68
2022-10-02T18:55:45.509Z,11.61
2022-10-02T18:58:38.431Z,11.57
2022-10-02T19:01:39.060Z,11.54
2022-10-02T19:04:24.660Z,11.51
2022-10-02T19:07:19.676Z,11.44
2022-10-02T19:09:47.330Z,11.45
2022-10-02T19:12:24.811Z,11.41
2022-10-02T19:15:15.444Z,11.39
2022-10-02T19:17:58.887Z,11.36
2022-10-02T19:20:36.475Z,11.34
2022-10-02T19:23:08.788Z,11.31
2022-10-02T19:25:36.336Z,11.26
2022-10-02T19:28:04.895Z,11.21
2022-10-02T19:30:33.860Z,11.20
2022-10-02T19:33:12.301Z,11.18
2022-10-02T19:35:43.863Z,11.15
2022-10-02T19:38:34.120Z,11.13
2022-10-02T19:41:09.592Z,11.10
2022-10-02T19:43:49.232Z,11.06
2022-10-02T19:46:19.751Z,11.03
2022-10-02T19:48:47.176Z,10.98
2022-10-02T19:51:21.423Z,10.95
2022-10-02T19:54:06.851Z,10.93
2022-10-02T19:56:44.132Z,10.90
2022-10-02T19:59:27.606Z,10.86
2022-10-02T20:01:59.051Z,10.80
2022-10-02T20:04:30.400Z,10.78
2022-10-02T20:06:59.724Z,10.73
2022-10-02T20:09:48.672Z,10.73
2022-10-02T20:12:22.145Z,10.70
2022-10-02T20:15:14.679Z,10.68
2022-10-02T20:17:42.083Z,10.67
2022-10-02T20:20:16.497Z,10.64
2022-10-02T20:22:49.688Z,10.59
2022-10-02T20:25:42.981Z,10.56
2022-10-02T20:28:27.030Z,10.60
2022-10-02T20:31:05.627Z,10.56
2022-10-02T20:33:54.980Z,10.50
2022-10-02T20:36:32.509Z,10.49
2022-10-02T20:39:09.663Z,10.46
2022-10-02T20:42:09.383Z,10.45
2022-10-02T20:44:37.621Z,10.41
2022-10-02T20:47:42.095Z,10.38
2022-10-02T20:50:39.055Z,10.35
2022-10-02T20:53:39.829Z,10.32
2022-10-02T20:56:39.323Z,10.28
2022-10-02T20:59:31.495Z,10.24
2022-10-02T21:02:13.244Z,10.18
2022-10-02T21:04:55.280Z,10.17
2022-10-02T21:07:52.797Z,10.09
2022-10-02T21:10:51.811Z,10.08
2022-10-02T21:13:53.530Z,10.04
2022-10-02T21:17:18.978Z,10.02
2022-10-02T21:20:49.674Z,9.93
2022-10-02T21:23:52.823Z,9.98
2022-10-02T21:26:39.168Z,9.91
2022-10-02T21:29:30.599Z,9.91
2022-10-02T21:32:21.218Z,9.88
2022-10-02T21:35:34.248Z,9.85
2022-10-02T21:38:48.427Z,9.84
2022-10-02T21:41:53.594Z,9.80
2022-10-02T21:45:13.673Z,9.71
2022-10-02T21:48:12.789Z,9.69
2022-10-02T21:51:29.992Z,9.67
2022-10-02T21:54:59.943Z,9.63
2022-10-02T21:58:02.626Z,9.63
2022-10-02T22:00:31.351Z,9.58
2022-10-02T22:03:23.063Z,9.53
2022-10-02T22:06:36.795Z,9.54
2022-10-02T22:10:26.770Z,9.50
2022-10-02T22:13:30.996Z,9.48
2022-10-02T22:16:17.248Z,9.44
2022-10-02T22:19:02.809Z,9.44
2022-10-02T22:22:10.316Z,9.39
2022-10-02T22:25:20.951Z,9.34
2022-10-02T22:28:16.127Z,9.34
2022-10-02T22:30:56.074Z,9.35
2022-10-02T22:34:00.116Z,9.32
2022-10-02T22:36:48.311Z,9.27
2022-10-02T22:39:29.832Z,9.22
2022-10-02T22:42:24.274Z,9.24
2022-10-02T22:45:25.991Z,9.19
2022-10-02T22:48:26.952Z,9.21
2022-10-02T22:51:16.340Z,9.21
2022-10-02T22:54:14.007Z,9.17
2022-10-02T22:57:06.960Z,9.15
2022-10-02T22:59:51.855Z,9.15
2022-10-02T23:02:43.746Z,9.12
2022-10-02T23:05:27.993Z,9.09
2022-10-02T23:08:11.517Z,9.04
2022-10-02T23:10:38.338Z,9.05
2022-10-02T23:13:44.843Z,9.05
2022-10-02T23:16:34.999Z,8.99
2022-10-02T23:19:18.160Z,9.00
2022-10-02T23:21:56.344Z,8.98
2022-10-02T23:24:48.677Z,8.93
2022-10-02T23:27:45.696Z,8.89
2022-10-02T23:30:20.265Z,8.90
2022-10-02T23:32:58.667Z,8.86
2022-10-02T23:36:15.798Z,8.84
2022-10-02T23:39:25.179Z,8.79
2022-10-02T23:41:58.328Z,8.75
2022-10-02T23:44:37.783Z,8.71
2022-10-02T23:47:17.706Z,8.71
2022-10-02T23:49:53.425Z,8.73
2022-10-02T23:52:41.646Z,8.66
2022-10-02T23:55:48.381Z,8.65
2022-10-02T23:58:39.366Z,8.64
